Time;durP1;ratioP1;P1;durP2;ratioP2;P2;SDS_P1;SDS_P2;PMS_P1;PMS_P2;Temp;Humidity;BMP_temperature;BMP_pressure;BME280_temperature;BME280_humidity;BME280_pressure;Samples;Min_cycle;Max_cycle;Signal;HPM_P1;HPM_P2
2022/11/06 00:00:17;;;;;;;;;;;;;;;6.55;74.49;101672.06;5064758;28;19917;-57
2022/11/06 00:02:42;;;;;;;;;;;;;;;6.48;74.28;101666.16;5068253;28;20011;-58
2022/11/06 00:07:52;;;;;;;;;;;;;;;6.35;74.42;101662.97;5063624;28;20274;-57
2022/11/06 00:10:17;;;;;;;;;;;;;;;6.30;74.75;101667.44;5061038;28;19920;-57
2022/11/06 00:12:43;;;;;;;;;;;;;;;6.28;74.43;101669.25;5064246;28;20023;-57
2022/11/06 00:15:08;;;;;;;;;;;;;;;6.24;74.70;101672.84;5070641;28;20314;-58
2022/11/06 00:17:34;;;;;;;;;;;;;;;6.21;74.74;101665.91;5067036;28;20013;-57
2022/11/06 00:19:59;;;;;;;;;;;;;;;6.20;74.95;101672.03;5062124;28;19963;-57
2022/11/06 00:22:24;;;;;;;;;;;;;;;6.20;74.73;101671.19;5068853;28;19917;-57
2022/11/06 00:24:50;;;;;;;;;;;;;;;6.21;74.85;101670.31;5065046;28;19935;-57
2022/11/06 00:27:15;;;;;;;;;;;;;;;6.21;74.85;101678.16;5066973;28;20280;-59
2022/11/06 00:29:40;;;;;;;;;;;;;;;6.20;74.80;101663.34;5067359;28;19928;-58
2022/11/06 00:32:06;;;;;;;;;;;;;;;6.19;74.91;101677.31;5063513;28;19998;-58
2022/11/06 00:34:31;;;;;;;;;;;;;;;6.17;74.59;101671.25;5068174;28;19967;-59
2022/11/06 00:36:56;;;;;;;;;;;;;;;6.16;74.93;101669.53;5062987;28;19974;-57
2022/11/06 00:39:22;;;;;;;;;;;;;;;6.14;74.53;101668.72;5061266;28;20674;-58
2022/11/06 00:41:47;;;;;;;;;;;;;;;6.11;74.45;101661.81;5071001;28;19929;-58
2022/11/06 00:44:12;;;;;;;;;;;;;;;6.09;74.28;101661.88;5065917;28;19962;-57
2022/11/06 00:46:38;;;;;;;;;;;;;;;6.07;74.61;101668.88;5071745;28;20268;-58
2022/11/06 00:49:03;;;;;;;;;;;;;;;6.06;74.32;101668.91;5072381;28;19971;-57
2022/11/06 00:51:30;;;;;;;;;;;;;;;6.05;74.23;101667.22;5072767;28;19923;-57
2022/11/06 00:53:56;;;;;;;;;;;;;;;6.04;74.14;101668.13;5070595;28;19920;-57
2022/11/06 00:56:21;;;;;;;;;;;;;;;6.02;73.94;101668.13;5066623;28;19921;-57
2022/11/06 00:58:47;;;;;;;;;;;;;;;6.02;74.04;101673.34;5070068;28;19970;-57
2022/11/06 01:01:21;;;;;;;;;;;;;;;6.02;74.03;101662.91;5069254;28;19928;-57
2022/11/06 01:03:50;;;;;;;;;;;;;;;6.02;74.05;101665.50;5068563;28;19924;-58
2022/11/06 01:06:16;;;;;;;;;;;;;;;6.02;74.35;101660.28;5069893;28;20354;-57
2022/11/06 01:08:42;;;;;;;;;;;;;;;6.01;74.36;101658.56;5071180;28;19996;-57
2022/11/06 01:11:09;;;;;;;;;;;;;;;6.02;74.13;101667.28;5065693;28;19999;-57
2022/11/06 01:13:35;;;;;;;;;;;;;;;6.02;74.46;101654.22;5070717;28;19916;-58
2022/11/06 01:16:00;;;;;;;;;;;;;;;6.02;74.01;101656.84;5069125;28;19916;-57
2022/11/06 01:18:26;;;;;;;;;;;;;;;6.06;74.18;101658.44;5056717;28;20014;-60
2022/11/06 01:20:51;;;;;;;;;;;;;;;6.09;74.26;101659.25;5057316;28;19920;-58
2022/11/06 01:23:16;;;;;;;;;;;;;;;6.13;74.57;101660.03;5054885;28;19969;-59
2022/11/06 01:25:42;;;;;;;;;;;;;;;6.16;74.69;101659.09;5065938;28;20299;-58
2022/11/06 01:28:07;;;;;;;;;;;;;;;6.17;74.74;101660.81;5068159;28;19924;-58
2022/11/06 01:30:35;;;;;;;;;;;;;;;6.21;74.57;101652.84;5069498;28;19923;-57
2022/11/06 01:33:00;;;;;;;;;;;;;;;6.24;74.43;101649.31;5068152;28;19916;-56
2022/11/06 01:35:25;;;;;;;;;;;;;;;6.25;74.54;101638.81;5070884;28;20325;-56
2022/11/06 01:37:50;;;;;;;;;;;;;;;6.28;74.53;101637.03;5069518;28;19924;-58
2022/11/06 01:40:16;;;;;;;;;;;;;;;6.26;74.64;101639.69;5056543;28;19963;-59
2022/11/06 01:42:41;;;;;;;;;;;;;;;6.25;74.58;101636.22;5060525;28;20441;-57
2022/11/06 01:45:27;;;;;;;;;;;;;;;6.27;74.53;101635.31;5065901;28;19924;-58
2022/11/06 01:47:52;;;;;;;;;;;;;;;6.22;74.78;101623.22;5061825;28;19939;-59
2022/11/06 01:50:18;;;;;;;;;;;;;;;6.21;74.52;101625.88;5065591;28;20478;-57
2022/11/06 01:52:44;;;;;;;;;;;;;;;6.17;74.60;101624.22;5068820;28;20438;-57
2022/11/06 01:55:16;;;;;;;;;;;;;;;6.13;74.84;101618.22;5060941;28;19959;-57
2022/11/06 01:57:42;;;;;;;;;;;;;;;6.10;74.39;101616.56;5061627;28;19924;-57
2022/11/06 02:00:08;;;;;;;;;;;;;;;6.08;74.50;101612.25;5061590;28;19928;-57
2022/11/06 02:02:34;;;;;;;;;;;;;;;6.03;74.40;101601.06;5065513;28;19924;-56
2022/11/06 02:04:59;;;;;;;;;;;;;;;5.99;74.53;101608.06;5063347;28;19928;-57
2022/11/06 02:07:25;;;;;;;;;;;;;;;5.94;74.49;101607.34;5063264;28;19968;-60
2022/11/06 02:09:50;;;;;;;;;;;;;;;5.91;74.24;101608.25;5059540;28;19916;-58
2022/11/06 02:12:19;;;;;;;;;;;;;;;5.86;74.28;101599.69;5064169;28;20371;-57
2022/11/06 02:14:44;;;;;;;;;;;;;;;5.84;74.10;101598.00;5061380;28;19924;-57
2022/11/06 02:17:13;;;;;;;;;;;;;;;5.77;74.27;101599.91;5065530;28;19916;-57
2022/11/06 02:19:38;;;;;;;;;;;;;;;5.76;74.42;101598.19;5061946;28;19967;-60
2022/11/06 02:22:09;;;;;;;;;;;;;;;5.71;74.11;101590.47;5053733;28;19956;-58
2022/11/06 02:24:53;;;;;;;;;;;;;;;5.68;74.70;101595.75;5062237;28;19916;-57
2022/11/06 02:27:22;;;;;;;;;;;;;;;5.67;74.35;101594.06;5062351;28;19970;-59
2022/11/06 02:30:02;;;;;;;;;;;;;;;5.69;74.40;101594.00;5066722;28;19923;-57
2022/11/06 02:32:31;;;;;;;;;;;;;;;5.69;74.81;101587.03;5063204;28;19993;-59
2022/11/06 02:34:59;;;;;;;;;;;;;;;5.70;74.81;101587.91;5055962;28;19927;-61
2022/11/06 02:37:28;;;;;;;;;;;;;;;5.69;74.80;101579.19;5062812;28;19960;-58
2022/11/06 02:39:56;;;;;;;;;;;;;;;5.68;74.81;101585.31;5061638;28;19920;-57
2022/11/06 02:42:23;;;;;;;;;;;;;;;5.69;75.15;101567.91;5059836;28;19917;-57
2022/11/06 02:44:51;;;;;;;;;;;;;;;5.68;74.97;101572.25;5061281;28;19916;-57
2022/11/06 02:47:17;;;;;;;;;;;;;;;5.68;74.67;101561.81;5064158;28;19983;-57
2022/11/06 02:49:46;;;;;;;;;;;;;;;5.66;74.89;101568.84;5069902;28;19916;-58
2022/11/06 02:52:24;;;;;;;;;;;;;;;5.66;74.76;101555.78;5044893;28;19924;-56
2022/11/06 02:54:58;;;;;;;;;;;;;;;5.65;74.48;101564.50;5064443;28;20007;-57
2022/11/06 02:57:25;;;;;;;;;;;;;;;5.64;74.45;101561.03;5065088;28;19924;-60
2022/11/06 02:59:55;;;;;;;;;;;;;;;5.63;74.57;101561.06;5067222;28;20568;-57
2022/11/06 03:02:25;;;;;;;;;;;;;;;5.61;74.94;101562.84;5063493;28;20400;-60
2022/11/06 03:04:58;;;;;;;;;;;;;;;5.58;74.58;101569.03;5064798;28;19959;-57
2022/11/06 03:07:30;;;;;;;;;;;;;;;5.56;74.41;101569.94;5066093;28;19935;-57
2022/11/06 03:09:55;;;;;;;;;;;;;;;5.52;74.44;101557.88;5065978;28;19923;-58
2022/11/06 03:12:26;;;;;;;;;;;;;;;5.46;74.84;101558.84;5056990;28;19925;-57
2022/11/06 03:15:03;;;;;;;;;;;;;;;5.44;74.90;101560.66;5066048;28;19931;-60
2022/11/06 03:17:37;;;;;;;;;;;;;;;5.40;74.70;101557.22;5062343;28;20011;-60
2022/11/06 03:20:05;;;;;;;;;;;;;;;5.34;74.56;101552.19;5067757;28;19920;-57
2022/11/06 03:22:30;;;;;;;;;;;;;;;5.35;74.73;101564.34;5067164;28;20395;-57
2022/11/06 03:25:07;;;;;;;;;;;;;;;5.30;74.73;101559.19;5067543;28;19912;-57
2022/11/06 03:27:53;;;;;;;;;;;;;;;5.29;74.97;101559.25;5065355;28;19923;-56
2022/11/06 03:30:18;;;;;;;;;;;;;;;5.27;75.21;101566.22;5067854;28;19913;-57
2022/11/06 03:32:50;;;;;;;;;;;;;;;5.29;74.97;101564.47;5066995;28;19931;-57
2022/11/06 03:35:34;;;;;;;;;;;;;;;5.30;75.41;101560.94;5069345;28;19939;-57
2022/11/06 03:37:59;;;;;;;;;;;;;;;5.34;75.44;101562.63;5068028;28;19918;-57
2022/11/06 03:40:27;;;;;;;;;;;;;;;5.35;75.43;101564.34;5064618;28;19916;-57
2022/11/06 03:42:54;;;;;;;;;;;;;;;5.38;75.36;101561.63;5066481;28;19917;-56
2022/11/06 03:45:22;;;;;;;;;;;;;;;5.41;75.61;101563.31;5069840;28;19928;-57
2022/11/06 03:47:50;;;;;;;;;;;;;;;5.43;75.65;101559.78;5068137;28;19919;-56
2022/11/06 03:50:23;;;;;;;;;;;;;;;5.45;75.29;101550.16;5068146;28;19969;-57
2022/11/06 03:52:53;;;;;;;;;;;;;;;5.47;75.40;101548.38;5067845;28;19920;-57
2022/11/06 03:55:19;;;;;;;;;;;;;;;5.46;75.17;101553.63;5066051;28;20379;-57
2022/11/06 03:57:49;;;;;;;;;;;;;;;5.44;75.47;101558.03;5066450;28;19928;-59
2022/11/06 04:00:16;;;;;;;;;;;;;;;5.42;75.42;101555.44;5061597;28;20019;-57
2022/11/06 04:02:44;;;;;;;;;;;;;;;5.38;75.41;101552.94;5063538;28;19928;-58
2022/11/06 04:05:12;;;;;;;;;;;;;;;5.33;75.17;101553.06;5067379;28;19912;-60
2022/11/06 04:07:40;;;;;;;;;;;;;;;5.29;75.60;101556.63;5066755;28;19925;-60
2022/11/06 04:15:44;;;;;;;;;;;;;;;5.30;75.10;101553.13;5068576;28;19986;-59
2022/11/06 04:18:13;;;;;;;;;;;;;;;5.25;75.35;101539.31;5072397;28;19924;-57
2022/11/06 04:26:34;;;;;;;;;;;;;;;5.26;75.46;101546.25;5070097;28;19969;-56
2022/11/06 04:26:39;;;;;;;;;;;;;;;5.28;75.95;101539.25;5051946;28;20007;-59
2022/11/06 04:29:11;;;;;;;;;;;;;;;5.29;75.59;101535.75;5074363;28;19917;-57
2022/11/06 04:31:46;;;;;;;;;;;;;;;5.28;75.70;101527.06;5072573;28;19920;-58
2022/11/06 04:34:25;;;;;;;;;;;;;;;5.26;75.85;101531.47;5068806;28;20300;-57
2022/11/06 04:36:56;;;;;;;;;;;;;;;5.26;75.81;101533.22;5073155;28;20307;-58
2022/11/06 04:39:30;;;;;;;;;;;;;;;5.26;75.63;101536.69;5070012;28;19923;-59
2022/11/06 04:42:01;;;;;;;;;;;;;;;5.24;75.38;101534.97;5070176;28;19920;-57
2022/11/06 04:44:31;;;;;;;;;;;;;;;5.21;75.35;101537.69;5071929;28;19974;-58
2022/11/06 04:47:00;;;;;;;;;;;;;;;5.17;75.65;101537.75;5067539;28;19939;-57
2022/11/06 04:49:28;;;;;;;;;;;;;;;5.14;75.37;101540.41;5067568;28;19969;-57
2022/11/06 04:51:54;;;;;;;;;;;;;;;5.13;75.64;101540.47;5071097;28;19916;-56
2022/11/06 04:54:19;;;;;;;;;;;;;;;5.09;75.28;101550.09;5070841;28;19927;-59
2022/11/06 04:56:45;;;;;;;;;;;;;;;5.07;75.81;101562.31;5067465;28;19920;-57
2022/11/06 04:59:12;;;;;;;;;;;;;;;5.06;75.73;101558.00;5068802;28;19924;-61
2022/11/06 05:01:38;;;;;;;;;;;;;;;5.08;75.81;101555.34;5067710;28;19999;-57
2022/11/06 05:04:03;;;;;;;;;;;;;;;5.04;75.98;101547.59;5067054;28;20382;-56
2022/11/06 05:06:28;;;;;;;;;;;;;;;5.05;75.73;101543.25;5063131;28;19932;-56
2022/11/06 05:08:54;;;;;;;;;;;;;;;5.03;75.84;101540.66;5062100;28;19932;-59
2022/11/06 05:11:19;;;;;;;;;;;;;;;5.01;75.36;101547.66;5066754;28;19924;-59
2022/11/06 05:13:45;;;;;;;;;;;;;;;4.98;75.34;101544.25;5066096;28;19924;-56
2022/11/06 05:16:10;;;;;;;;;;;;;;;4.96;75.59;101546.91;5071776;28;19936;-57
2022/11/06 05:18:35;;;;;;;;;;;;;;;4.93;75.65;101548.69;5067605;28;20420;-59
2022/11/06 05:23:45;;;;;;;;;;;;;;;4.88;75.52;101547.06;5070225;28;20379;-56
2022/11/06 05:26:11;;;;;;;;;;;;;;;4.86;75.35;101548.84;5072865;28;19921;-59
2022/11/06 05:28:36;;;;;;;;;;;;;;;4.86;75.35;101550.59;5051130;28;19913;-58
2022/11/06 05:31:02;;;;;;;;;;;;;;;4.83;75.53;101554.13;5068410;28;19921;-59
2022/11/06 05:33:27;;;;;;;;;;;;;;;4.84;75.57;101548.03;5066651;28;19924;-57
2022/11/06 05:35:52;;;;;;;;;;;;;;;4.84;75.50;101537.59;5066511;28;19932;-57
2022/11/06 05:38:18;;;;;;;;;;;;;;;4.88;75.42;101525.34;5071855;28;19924;-59
2022/11/06 05:40:43;;;;;;;;;;;;;;;4.88;75.69;101518.38;5066544;28;20041;-56
2022/11/06 05:43:09;;;;;;;;;;;;;;;4.91;75.64;101524.44;5068195;28;20356;-56
2022/11/06 05:45:34;;;;;;;;;;;;;;;4.90;75.32;101525.31;5070490;28;19986;-59
2022/11/06 05:47:59;;;;;;;;;;;;;;;4.85;74.85;101515.84;5066661;28;19920;-59
2022/11/06 05:50:25;;;;;;;;;;;;;;;4.82;74.79;101510.69;5070003;28;19920;-59
2022/11/06 05:52:50;;;;;;;;;;;;;;;4.78;75.05;101518.59;5070144;28;19916;-56
2022/11/06 05:55:15;;;;;;;;;;;;;;;4.75;75.14;101524.75;5065297;28;19933;-58
2022/11/06 05:57:41;;;;;;;;;;;;;;;4.72;74.80;101540.44;5069454;28;19990;-59
2022/11/06 06:00:07;;;;;;;;;;;;;;;4.68;75.24;101531.84;5070634;28;19923;-58
2022/11/06 06:02:32;;;;;;;;;;;;;;;4.65;75.47;101536.25;5066744;28;19928;-58
2022/11/06 06:04:57;;;;;;;;;;;;;;;4.67;75.47;101537.06;5069568;28;19974;-56
2022/11/06 06:07:23;;;;;;;;;;;;;;;4.66;75.10;101541.44;5064985;28;19955;-58
2022/11/06 06:09:48;;;;;;;;;;;;;;;4.65;75.37;101544.06;5066696;28;19920;-59
2022/11/06 06:12:13;;;;;;;;;;;;;;;4.63;75.34;101535.41;5066938;28;19928;-56
2022/11/06 06:14:39;;;;;;;;;;;;;;;4.65;75.25;101538.84;5070664;28;20023;-59
2022/11/06 06:17:04;;;;;;;;;;;;;;;4.63;75.43;101538.88;5068875;28;19920;-58
2022/11/06 06:19:29;;;;;;;;;;;;;;;4.66;75.66;101536.22;5066639;28;19966;-60
2022/11/06 06:21:54;;;;;;;;;;;;;;;4.65;75.36;101542.31;5066982;28;19967;-57
2022/11/06 06:24:20;;;;;;;;;;;;;;;4.64;75.60;101540.59;5064077;28;19920;-60
2022/11/06 06:26:45;;;;;;;;;;;;;;;4.65;75.68;101544.94;5070141;28;19920;-59
2022/11/06 06:29:10;;;;;;;;;;;;;;;4.64;75.68;101551.03;5069159;28;19916;-56
2022/11/06 06:31:36;;;;;;;;;;;;;;;4.62;75.79;101554.53;5064861;28;19924;-56
2022/11/06 06:34:01;;;;;;;;;;;;;;;4.65;76.11;101554.50;5069948;28;20318;-57
2022/11/06 06:36:28;;;;;;;;;;;;;;;4.68;75.71;101554.44;5064254;28;20198;-59
2022/11/06 06:38:54;;;;;;;;;;;;;;;4.70;75.88;101553.50;5066985;28;19924;-57
2022/11/06 06:41:19;;;;;;;;;;;;;;;4.72;76.26;101545.66;5067800;28;19913;-58
2022/11/06 06:43:46;;;;;;;;;;;;;;;4.75;76.23;101555.16;5065041;28;20433;-59
2022/11/06 06:46:11;;;;;;;;;;;;;;;4.79;76.17;101555.06;5065572;28;19959;-59
2022/11/06 06:48:37;;;;;;;;;;;;;;;4.84;76.23;101550.63;5070015;28;19955;-59
2022/11/06 06:51:02;;;;;;;;;;;;;;;4.90;75.89;101541.81;5067744;28;19916;-58
2022/11/06 06:53:28;;;;;;;;;;;;;;;4.95;76.22;101533.88;5067453;28;20322;-58
2022/11/06 06:55:54;;;;;;;;;;;;;;;5.00;76.17;101542.47;5067200;28;19958;-59
2022/11/06 06:58:19;;;;;;;;;;;;;;;5.02;76.14;101543.31;5069043;28;19912;-56
2022/11/06 07:00:45;;;;;;;;;;;;;;;5.01;76.25;101541.59;5058397;28;19987;-58
2022/11/06 07:03:10;;;;;;;;;;;;;;;5.03;75.91;101545.03;5062457;28;19920;-59
2022/11/06 07:05:36;;;;;;;;;;;;;;;5.07;76.27;101546.66;5066027;28;20015;-57
2022/11/06 07:08:01;;;;;;;;;;;;;;;5.09;76.42;101544.88;5067582;28;19912;-57
2022/11/06 07:10:26;;;;;;;;;;;;;;;5.12;76.42;101543.97;5061758;28;19916;-59
2022/11/06 07:12:52;;;;;;;;;;;;;;;5.14;76.02;101540.41;5052827;28;19920;-57
2022/11/06 07:15:17;;;;;;;;;;;;;;;5.16;76.31;101550.81;5061826;28;20357;-59
2022/11/06 07:17:42;;;;;;;;;;;;;;;5.19;76.22;101549.00;5068302;28;20364;-59
2022/11/06 07:20:08;;;;;;;;;;;;;;;5.22;77.08;101547.22;5069195;28;19924;-59
2022/11/06 07:22:34;;;;;;;;;;;;;;;5.28;76.94;101539.25;5066714;28;19923;-59
2022/11/06 07:24:59;;;;;;;;;;;;;;;5.37;77.18;101552.06;5058234;28;20409;-58
2022/11/06 07:27:24;;;;;;;;;;;;;;;5.45;77.46;101549.28;5060326;28;19973;-59
2022/11/06 07:29:50;;;;;;;;;;;;;;;5.54;77.63;101541.25;5056473;28;19967;-59
2022/11/06 07:32:15;;;;;;;;;;;;;;;5.63;77.66;101548.84;5053570;28;19963;-59
2022/11/06 07:34:40;;;;;;;;;;;;;;;5.72;77.49;101549.56;5061074;28;19936;-57
2022/11/06 07:37:06;;;;;;;;;;;;;;;5.79;77.14;101546.75;5062087;28;19924;-59
2022/11/06 07:39:31;;;;;;;;;;;;;;;5.82;77.73;101553.63;5058308;28;20565;-57
2022/11/06 07:41:56;;;;;;;;;;;;;;;5.91;77.17;101556.00;5053437;28;19929;-55
2022/11/06 07:44:22;;;;;;;;;;;;;;;5.99;77.34;101554.97;5053349;28;19925;-58
2022/11/06 07:46:47;;;;;;;;;;;;;;;6.04;77.08;101559.22;5065411;28;19916;-59
2022/11/06 07:49:14;;;;;;;;;;;;;;;6.12;76.97;101563.41;5065535;28;19912;-59
2022/11/06 07:51:40;;;;;;;;;;;;;;;6.18;76.96;101558.88;5067219;28;19989;-59
2022/11/06 07:54:05;;;;;;;;;;;;;;;6.24;76.94;101557.84;5063802;28;20330;-56
2022/11/06 07:56:30;;;;;;;;;;;;;;;6.29;77.16;101560.34;5057794;28;19981;-58
2022/11/06 07:58:56;;;;;;;;;;;;;;;6.34;76.84;101556.69;5062269;28;19924;-58
2022/11/06 08:01:21;;;;;;;;;;;;;;;6.42;77.04;101550.41;5064176;28;19920;-58
2022/11/06 08:03:47;;;;;;;;;;;;;;;6.50;76.82;101548.44;5064593;28;20035;-57
2022/11/06 08:06:12;;;;;;;;;;;;;;;6.55;76.72;101546.56;5064384;28;20652;-58
2022/11/06 08:08:38;;;;;;;;;;;;;;;6.59;76.48;101539.47;5066150;28;19935;-60
2022/11/06 08:11:04;;;;;;;;;;;;;;;6.67;76.54;101546.19;5062767;28;19943;-57
2022/11/06 08:13:29;;;;;;;;;;;;;;;6.69;76.60;101536.56;5050913;28;20364;-60
2022/11/06 08:15:54;;;;;;;;;;;;;;;6.77;76.53;101538.09;5056328;28;20383;-60
2022/11/06 08:18:20;;;;;;;;;;;;;;;6.82;76.53;101538.81;5065128;28;19921;-60
2022/11/06 08:20:45;;;;;;;;;;;;;;;6.86;76.44;101536.06;5063127;28;19947;-58
2022/11/06 08:23:11;;;;;;;;;;;;;;;6.93;76.07;101531.50;5071978;28;19927;-56
2022/11/06 08:25:37;;;;;;;;;;;;;;;6.98;75.95;101533.97;5066172;28;19920;-55
2022/11/06 08:28:02;;;;;;;;;;;;;;;7.00;75.91;101540.03;5075839;28;20012;-55
2022/11/06 08:30:28;;;;;;;;;;;;;;;7.04;75.88;101543.41;5065465;28;19982;-56
2022/11/06 08:32:54;;;;;;;;;;;;;;;7.04;76.03;101543.41;5071534;28;19920;-57
2022/11/06 08:35:20;;;;;;;;;;;;;;;7.08;76.33;101539.78;5071027;28;19916;-56
2022/11/06 08:37:45;;;;;;;;;;;;;;;7.12;76.32;101528.34;5068759;28;19920;-60
2022/11/06 08:40:11;;;;;;;;;;;;;;;7.17;76.17;101526.44;5069671;28;19928;-56
2022/11/06 08:42:36;;;;;;;;;;;;;;;7.25;75.86;101521.81;5071129;28;19960;-56
2022/11/06 08:45:02;;;;;;;;;;;;;;;7.34;75.60;101525.91;5069853;28;19916;-60
2022/11/06 08:47:27;;;;;;;;;;;;;;;7.44;75.57;101529.09;5070236;28;19923;-56
2022/11/06 08:49:52;;;;;;;;;;;;;;;7.51;75.42;101520.13;5066152;28;20326;-56
2022/11/06 08:52:18;;;;;;;;;;;;;;;7.60;75.19;101525.06;5068122;28;20065;-59
2022/11/06 08:54:43;;;;;;;;;;;;;;;7.72;75.00;101523.78;5068725;28;19920;-56
2022/11/06 08:57:08;;;;;;;;;;;;;;;7.82;74.56;101529.59;5072528;28;20351;-56
2022/11/06 08:59:34;;;;;;;;;;;;;;;7.86;74.42;101517.25;5041358;28;19927;-56
2022/11/06 09:01:59;;;;;;;;;;;;;;;7.92;74.08;101519.66;5072055;28;20458;-56
2022/11/06 09:04:25;;;;;;;;;;;;;;;8.00;74.03;101514.16;5045816;28;19973;-58
2022/11/06 09:06:50;;;;;;;;;;;;;;;8.05;73.82;101509.63;5070764;28;19922;-59
2022/11/06 09:09:15;;;;;;;;;;;;;;;8.04;73.57;101494.78;5066762;28;19928;-57
2022/11/06 09:11:41;;;;;;;;;;;;;;;8.01;73.65;101493.16;5070773;28;19920;-57
2022/11/06 09:14:06;;;;;;;;;;;;;;;8.02;73.69;101488.75;5072206;28;20015;-56
2022/11/06 09:16:31;;;;;;;;;;;;;;;7.98;73.75;101492.38;5068785;28;19943;-56
2022/11/06 09:18:57;;;;;;;;;;;;;;;7.90;73.61;101498.75;5065029;28;19931;-58
2022/11/06 09:21:23;;;;;;;;;;;;;;;7.93;73.83;101488.16;5071957;28;19928;-58
2022/11/06 09:23:48;;;;;;;;;;;;;;;7.93;73.72;101485.56;5068737;28;19924;-56
2022/11/06 09:26:14;;;;;;;;;;;;;;;7.92;73.75;101485.59;5069214;28;19922;-60
2022/11/06 09:28:39;;;;;;;;;;;;;;;7.93;73.81;101488.16;5065878;28;19920;-58
2022/11/06 09:31:05;;;;;;;;;;;;;;;7.96;73.75;101492.44;5075863;28;19924;-56
2022/11/06 09:33:30;;;;;;;;;;;;;;;7.97;73.86;101482.78;5073438;28;19920;-56
2022/11/06 09:35:55;;;;;;;;;;;;;;;7.97;73.81;101482.78;5068474;28;19964;-60
2022/11/06 09:38:21;;;;;;;;;;;;;;;8.00;73.96;101482.69;5069423;28;19923;-60
2022/11/06 09:41:12;;;;;;;;;;;;;;;8.01;73.75;101473.94;5064832;28;20465;-58
2022/11/06 09:44:10;;;;;;;;;;;;;;;8.03;73.76;101474.72;5054426;28;20399;-60
2022/11/06 09:46:41;;;;;;;;;;;;;;;8.04;73.61;101473.81;5034704;28;19967;-57
2022/11/06 09:49:14;;;;;;;;;;;;;;;8.11;73.85;101474.47;5071003;28;19920;-62
2022/11/06 09:52:00;;;;;;;;;;;;;;;8.13;73.57;101478.72;5071477;28;19917;-63
2022/11/06 09:54:45;;;;;;;;;;;;;;;8.16;73.33;101473.38;5068102;28;19947;-57
2022/11/06 09:57:19;;;;;;;;;;;;;;;8.24;73.33;101473.09;5067123;28;19916;-58
2022/11/06 09:59:45;;;;;;;;;;;;;;;8.28;73.40;101472.09;5068945;28;20046;-56
2022/11/06 10:02:31;;;;;;;;;;;;;;;8.29;73.57;101473.81;5071147;28;20043;-57
2022/11/06 10:05:06;;;;;;;;;;;;;;;8.31;73.44;101465.88;5069670;28;19916;-59
2022/11/06 10:07:35;;;;;;;;;;;;;;;8.35;73.30;101470.94;5068684;28;20303;-57
2022/11/06 10:10:03;;;;;;;;;;;;;;;8.38;73.33;101462.13;5065487;28;20284;-59
2022/11/06 10:12:41;;;;;;;;;;;;;;;8.40;73.43;101470.75;5070333;28;19925;-59
2022/11/06 10:15:15;;;;;;;;;;;;;;;8.45;73.50;101470.63;5070494;28;19939;-57
2022/11/06 10:17:50;;;;;;;;;;;;;;;8.48;73.04;101474.00;5070124;28;19920;-59
2022/11/06 10:20:15;;;;;;;;;;;;;;;8.52;73.06;101467.75;5067531;28;20343;-60
2022/11/06 10:22:47;;;;;;;;;;;;;;;8.52;73.26;101462.50;5065517;28;19959;-59
2022/11/06 10:25:20;;;;;;;;;;;;;;;8.55;73.34;101461.50;5064528;28;19924;-57
2022/11/06 10:28:06;;;;;;;;;;;;;;;8.58;73.23;101463.16;5069702;28;20399;-59
2022/11/06 10:30:50;;;;;;;;;;;;;;;8.59;73.40;101459.63;5039353;28;19913;-57
2022/11/06 10:33:34;;;;;;;;;;;;;;;8.66;73.25;101467.19;5057253;28;19935;-57
2022/11/06 10:36:08;;;;;;;;;;;;;;;8.71;73.35;101469.66;5069781;28;19920;-60
2022/11/06 10:38:35;;;;;;;;;;;;;;;8.75;73.15;101467.78;5066908;28;19920;-60
2022/11/06 10:41:00;;;;;;;;;;;;;;;8.79;73.19;101457.09;5069509;28;20370;-60
2022/11/06 10:43:30;;;;;;;;;;;;;;;8.79;73.11;101462.34;5069140;28;20441;-60
2022/11/06 10:45:59;;;;;;;;;;;;;;;8.83;73.12;101455.19;5068558;28;20344;-57
2022/11/06 10:48:26;;;;;;;;;;;;;;;8.85;72.96;101458.63;5067567;28;19912;-56
2022/11/06 10:51:12;;;;;;;;;;;;;;;8.89;72.92;101451.47;5068956;28;19951;-55
2022/11/06 10:53:45;;;;;;;;;;;;;;;8.93;72.75;101447.84;5025639;28;20406;-56
2022/11/06 10:56:22;;;;;;;;;;;;;;;8.96;72.83;101440.69;5066721;28;20403;-61
2022/11/06 10:58:49;;;;;;;;;;;;;;;8.97;72.55;101433.69;5061927;28;19973;-56
2022/11/06 11:01:14;;;;;;;;;;;;;;;8.98;72.54;101430.13;5066096;28;19927;-60
2022/11/06 11:03:41;;;;;;;;;;;;;;;9.03;72.51;101432.56;5066579;28;19920;-56
2022/11/06 11:06:07;;;;;;;;;;;;;;;9.04;72.71;101427.25;5069139;28;19917;-59
2022/11/06 11:08:33;;;;;;;;;;;;;;;9.07;72.66;101421.88;5066080;28;19920;-59
2022/11/06 11:11:01;;;;;;;;;;;;;;;9.07;72.38;101421.03;5069081;28;19916;-56
2022/11/06 11:13:26;;;;;;;;;;;;;;;9.11;72.30;101425.22;5066957;28;19930;-56
2022/11/06 11:15:51;;;;;;;;;;;;;;;9.12;72.48;101422.56;5070369;28;20302;-57
2022/11/06 11:18:21;;;;;;;;;;;;;;;9.15;72.54;101422.41;5067480;28;19924;-56
2022/11/06 11:20:47;;;;;;;;;;;;;;;9.19;72.36;101409.16;5066055;28;20391;-60
2022/11/06 11:23:17;;;;;;;;;;;;;;;9.20;72.28;101403.00;5066787;28;20299;-56
2022/11/06 11:25:45;;;;;;;;;;;;;;;9.23;71.95;101403.72;5066203;28;19916;-56
2022/11/06 11:28:20;;;;;;;;;;;;;;;9.25;71.66;101399.25;5067112;28;19928;-59
2022/11/06 11:30:50;;;;;;;;;;;;;;;9.30;71.80;101404.34;5060438;28;19924;-59
2022/11/06 11:33:18;;;;;;;;;;;;;;;9.33;71.86;101406.81;5065274;28;20311;-56
2022/11/06 11:35:46;;;;;;;;;;;;;;;9.35;71.83;101404.13;5058947;28;19936;-59
2022/11/06 11:38:13;;;;;;;;;;;;;;;9.37;71.67;101397.06;5060231;28;19987;-56
2022/11/06 11:40:38;;;;;;;;;;;;;;;9.40;71.67;101389.88;5067008;28;20342;-57
2022/11/06 11:43:22;;;;;;;;;;;;;;;9.41;71.29;101396.84;5067822;28;19921;-55
2022/11/06 11:46:20;;;;;;;;;;;;;;;9.47;71.41;101393.09;5061252;28;19941;-59
2022/11/06 11:48:51;;;;;;;;;;;;;;;9.49;71.47;101378.13;5027895;28;20468;-59
2022/11/06 11:51:25;;;;;;;;;;;;;;;9.52;71.37;101371.88;5065896;28;19916;-62
2022/11/06 11:53:52;;;;;;;;;;;;;;;9.54;71.48;101380.56;5062578;28;20003;-59
2022/11/06 11:56:20;;;;;;;;;;;;;;;9.56;71.23;101373.47;5068085;28;19956;-56
2022/11/06 11:58:53;;;;;;;;;;;;;;;9.60;71.07;101372.44;5067079;28;19943;-57
2022/11/06 12:01:19;;;;;;;;;;;;;;;9.63;71.08;101367.00;5070390;28;19920;-56
2022/11/06 12:03:48;;;;;;;;;;;;;;;9.68;71.13;101367.69;5067442;28;20526;-56
2022/11/06 12:06:15;;;;;;;;;;;;;;;9.72;71.04;101364.00;5069443;28;20390;-56
2022/11/06 12:08:45;;;;;;;;;;;;;;;9.76;70.68;101360.28;5053292;28;20749;-56
2022/11/06 12:11:14;;;;;;;;;;;;;;;9.80;70.27;101349.66;5064514;28;19967;-57
2022/11/06 12:13:39;;;;;;;;;;;;;;;9.83;70.35;101354.78;5067413;28;20408;-56
2022/11/06 12:16:08;;;;;;;;;;;;;;;9.83;69.73;101350.34;5066223;28;19931;-57
2022/11/06 12:18:34;;;;;;;;;;;;;;;9.86;69.98;101350.22;5065377;28;19912;-56
2022/11/06 12:21:05;;;;;;;;;;;;;;;9.91;69.79;101352.63;5062433;28;19920;-60
2022/11/06 12:23:33;;;;;;;;;;;;;;;9.92;69.37;101346.47;5062043;28;19932;-58
2022/11/06 12:26:06;;;;;;;;;;;;;;;9.97;69.44;101341.84;5061304;28;19964;-58
2022/11/06 12:28:34;;;;;;;;;;;;;;;10.02;69.63;101346.91;5067148;28;19932;-56
2022/11/06 12:31:08;;;;;;;;;;;;;;;10.05;69.08;101352.91;5062741;28;19979;-59
2022/11/06 12:33:36;;;;;;;;;;;;;;;10.09;68.91;101344.84;5064750;28;19927;-57
2022/11/06 12:36:05;;;;;;;;;;;;;;;10.13;68.92;101341.16;5066359;28;19924;-56
2022/11/06 12:38:33;;;;;;;;;;;;;;;10.17;68.76;101343.56;5067692;28;19917;-56
2022/11/06 12:41:08;;;;;;;;;;;;;;;10.21;68.44;101342.50;5067575;28;19967;-59
2022/11/06 12:43:52;;;;;;;;;;;;;;;10.24;68.01;101338.88;5066914;28;20016;-55
2022/11/06 12:46:20;;;;;;;;;;;;;;;10.28;67.97;101329.09;5065893;28;20334;-60
2022/11/06 12:48:46;;;;;;;;;;;;;;;10.31;68.25;101329.78;5068272;28;19920;-55
2022/11/06 12:51:24;;;;;;;;;;;;;;;10.34;68.28;101334.91;5067926;28;19975;-56
2022/11/06 12:53:52;;;;;;;;;;;;;;;10.37;68.34;101324.22;5058888;28;20514;-59
2022/11/06 12:56:26;;;;;;;;;;;;;;;10.41;67.80;101324.97;5065511;28;19924;-58
2022/11/06 12:58:57;;;;;;;;;;;;;;;10.44;67.75;101321.34;5069670;28;19923;-56
2022/11/06 13:01:31;;;;;;;;;;;;;;;10.47;67.72;101314.13;5066076;28;19924;-56
2022/11/06 13:04:04;;;;;;;;;;;;;;;10.52;67.76;101321.81;5067288;28;19916;-56